sensor_id;sensor_type;location;lat;lon;timestamp;temperature;humidity
47845;DHT22;33605;48.822;8.796;2023-04-25T00:01:20;12.40;48.90
47845;DHT22;33605;48.822;8.796;2023-04-25T00:03:47;12.40;49.00
47845;DHT22;33605;48.822;8.796;2023-04-25T00:06:13;12.40;49.10
47845;DHT22;33605;48.822;8.796;2023-04-25T00:08:39;12.40;49.10
47845;DHT22;33605;48.822;8.796;2023-04-25T00:11:05;12.40;49.30
47845;DHT22;33605;48.822;8.796;2023-04-25T00:13:30;12.40;49.60
47845;DHT22;33605;48.822;8.796;2023-04-25T00:15:56;12.40;49.80
47845;DHT22;33605;48.822;8.796;2023-04-25T00:18:23;12.40;50.00
47845;DHT22;33605;48.822;8.796;2023-04-25T00:20:49;12.40;50.00
47845;DHT22;33605;48.822;8.796;2023-04-25T00:23:17;12.40;50.00
47845;DHT22;33605;48.822;8.796;2023-04-25T00:25:50;12.30;49.90
47845;DHT22;33605;48.822;8.796;2023-04-25T00:28:16;12.30;49.90
47845;DHT22;33605;48.822;8.796;2023-04-25T00:30:42;12.30;49.90
47845;DHT22;33605;48.822;8.796;2023-04-25T00:33:08;12.20;49.90
47845;DHT22;33605;48.822;8.796;2023-04-25T00:35:34;12.20;49.80
47845;DHT22;33605;48.822;8.796;2023-04-25T00:38:00;12.20;49.90
47845;DHT22;33605;48.822;8.796;2023-04-25T00:40:27;12.20;50.10
47845;DHT22;33605;48.822;8.796;2023-04-25T00:42:53;12.10;50.10
47845;DHT22;33605;48.822;8.796;2023-04-25T00:45:19;12.10;50.20
47845;DHT22;33605;48.822;8.796;2023-04-25T00:47:46;12.10;50.30
47845;DHT22;33605;48.822;8.796;2023-04-25T00:50:13;12.10;50.40
47845;DHT22;33605;48.822;8.796;2023-04-25T00:52:43;12.10;50.50
47845;DHT22;33605;48.822;8.796;2023-04-25T00:55:10;12.10;50.40
47845;DHT22;33605;48.822;8.796;2023-04-25T00:57:36;12.10;50.10
47845;DHT22;33605;48.822;8.796;2023-04-25T01:00:04;12.10;49.80
47845;DHT22;33605;48.822;8.796;2023-04-25T01:02:32;12.10;49.50
47845;DHT22;33605;48.822;8.796;2023-04-25T01:04:58;12.00;49.20
47845;DHT22;33605;48.822;8.796;2023-04-25T01:07:24;12.00;49.00
47845;DHT22;33605;48.822;8.796;2023-04-25T01:09:51;12.00;48.90
47845;DHT22;33605;48.822;8.796;2023-04-25T01:12:17;12.00;48.90
47845;DHT22;33605;48.822;8.796;2023-04-25T01:14:43;11.90;48.80
47845;DHT22;33605;48.822;8.796;2023-04-25T01:17:09;12.00;49.00
47845;DHT22;33605;48.822;8.796;2023-04-25T01:19:35;12.00;49.10
47845;DHT22;33605;48.822;8.796;2023-04-25T01:22:01;11.90;49.10
47845;DHT22;33605;48.822;8.796;2023-04-25T01:24:27;12.00;49.30
47845;DHT22;33605;48.822;8.796;2023-04-25T01:26:53;12.00;49.40
47845;DHT22;33605;48.822;8.796;2023-04-25T01:29:21;11.90;49.30
47845;DHT22;33605;48.822;8.796;2023-04-25T01:31:47;11.90;49.30
47845;DHT22;33605;48.822;8.796;2023-04-25T01:34:13;11.90;49.40
47845;DHT22;33605;48.822;8.796;2023-04-25T01:36:39;11.90;49.50
47845;DHT22;33605;48.822;8.796;2023-04-25T01:39:06;11.90;49.70
47845;DHT22;33605;48.822;8.796;2023-04-25T01:41:32;11.90;49.90
47845;DHT22;33605;48.822;8.796;2023-04-25T01:43:58;11.90;50.10
47845;DHT22;33605;48.822;8.796;2023-04-25T01:46:24;11.90;50.20
47845;DHT22;33605;48.822;8.796;2023-04-25T01:48:50;11.90;50.30
47845;DHT22;33605;48.822;8.796;2023-04-25T01:51:15;11.90;50.40
47845;DHT22;33605;48.822;8.796;2023-04-25T01:53:41;11.90;50.40
47845;DHT22;33605;48.822;8.796;2023-04-25T01:56:08;11.90;50.40
47845;DHT22;33605;48.822;8.796;2023-04-25T01:58:33;12.00;50.60
47845;DHT22;33605;48.822;8.796;2023-04-25T02:00:59;11.90;50.40
47845;DHT22;33605;48.822;8.796;2023-04-25T02:03:25;12.00;50.50
47845;DHT22;33605;48.822;8.796;2023-04-25T02:05:51;12.00;50.50
47845;DHT22;33605;48.822;8.796;2023-04-25T02:08:17;12.00;50.40
47845;DHT22;33605;48.822;8.796;2023-04-25T02:10:43;12.00;50.30
47845;DHT22;33605;48.822;8.796;2023-04-25T02:13:09;12.00;50.10
47845;DHT22;33605;48.822;8.796;2023-04-25T02:15:35;12.00;50.10
47845;DHT22;33605;48.822;8.796;2023-04-25T02:18:00;12.00;50.10
47845;DHT22;33605;48.822;8.796;2023-04-25T02:20:29;12.00;50.30
47845;DHT22;33605;48.822;8.796;2023-04-25T02:22:55;12.00;50.30
47845;DHT22;33605;48.822;8.796;2023-04-25T02:25:21;12.00;50.30
47845;DHT22;33605;48.822;8.796;2023-04-25T02:27:48;12.00;50.40
47845;DHT22;33605;48.822;8.796;2023-04-25T02:30:14;12.10;50.60
47845;DHT22;33605;48.822;8.796;2023-04-25T02:32:40;12.00;50.50
47845;DHT22;33605;48.822;8.796;2023-04-25T02:35:06;12.10;50.70
47845;DHT22;33605;48.822;8.796;2023-04-25T02:37:37;12.00;50.70
47845;DHT22;33605;48.822;8.796;2023-04-25T02:40:03;12.10;51.00
47845;DHT22;33605;48.822;8.796;2023-04-25T02:42:30;12.00;50.90
47845;DHT22;33605;48.822;8.796;2023-04-25T02:44:55;12.00;51.00
47845;DHT22;33605;48.822;8.796;2023-04-25T02:47:21;12.00;51.10
47845;DHT22;33605;48.822;8.796;2023-04-25T02:49:47;12.00;51.30
47845;DHT22;33605;48.822;8.796;2023-04-25T02:52:12;12.00;51.50
47845;DHT22;33605;48.822;8.796;2023-04-25T02:54:39;12.10;51.70
47845;DHT22;33605;48.822;8.796;2023-04-25T02:57:05;12.00;51.70
47845;DHT22;33605;48.822;8.796;2023-04-25T02:59:30;12.10;52.00
47845;DHT22;33605;48.822;8.796;2023-04-25T03:01:56;12.10;52.20
47845;DHT22;33605;48.822;8.796;2023-04-25T03:04:21;12.10;52.20
47845;DHT22;33605;48.822;8.796;2023-04-25T03:06:49;12.10;52.30
47845;DHT22;33605;48.822;8.796;2023-04-25T03:09:15;12.00;52.10
47845;DHT22;33605;48.822;8.796;2023-04-25T03:11:40;12.10;52.20
47845;DHT22;33605;48.822;8.796;2023-04-25T03:14:06;12.00;52.10
47845;DHT22;33605;48.822;8.796;2023-04-25T03:16:31;12.00;52.00
47845;DHT22;33605;48.822;8.796;2023-04-25T03:18:57;12.00;51.90
47845;DHT22;33605;48.822;8.796;2023-04-25T03:21:23;12.00;51.90
47845;DHT22;33605;48.822;8.796;2023-04-25T03:23:48;11.90;51.70
47845;DHT22;33605;48.822;8.796;2023-04-25T03:26:14;11.90;51.70
47845;DHT22;33605;48.822;8.796;2023-04-25T03:28:41;11.90;51.80
47845;DHT22;33605;48.822;8.796;2023-04-25T03:31:07;11.90;51.80
47845;DHT22;33605;48.822;8.796;2023-04-25T03:33:33;11.90;51.80
47845;DHT22;33605;48.822;8.796;2023-04-25T03:35:58;11.90;51.90
47845;DHT22;33605;48.822;8.796;2023-04-25T03:38:24;11.90;51.90
47845;DHT22;33605;48.822;8.796;2023-04-25T03:40:51;11.90;52.20
47845;DHT22;33605;48.822;8.796;2023-04-25T03:43:16;11.90;52.30
47845;DHT22;33605;48.822;8.796;2023-04-25T03:45:42;11.90;52.50
47845;DHT22;33605;48.822;8.796;2023-04-25T03:48:08;11.90;52.60
47845;DHT22;33605;48.822;8.796;2023-04-25T03:50:33;11.90;52.70
47845;DHT22;33605;48.822;8.796;2023-04-25T03:52:59;11.90;52.80
47845;DHT22;33605;48.822;8.796;2023-04-25T03:55:24;11.90;52.80
47845;DHT22;33605;48.822;8.796;2023-04-25T03:57:50;11.90;52.70
47845;DHT22;33605;48.822;8.796;2023-04-25T04:00:16;11.90;52.80
47845;DHT22;33605;48.822;8.796;2023-04-25T04:02:41;11.90;52.70
47845;DHT22;33605;48.822;8.796;2023-04-25T04:05:07;11.90;52.80
47845;DHT22;33605;48.822;8.796;2023-04-25T04:07:33;11.80;52.60
47845;DHT22;33605;48.822;8.796;2023-04-25T04:09:59;11.90;52.70
47845;DHT22;33605;48.822;8.796;2023-04-25T04:12:25;11.80;52.70
47845;DHT22;33605;48.822;8.796;2023-04-25T04:14:50;11.80;52.90
47845;DHT22;33605;48.822;8.796;2023-04-25T04:17:16;11.80;52.90
47845;DHT22;33605;48.822;8.796;2023-04-25T04:19:42;11.80;53.00
47845;DHT22;33605;48.822;8.796;2023-04-25T04:22:07;11.80;53.10
47845;DHT22;33605;48.822;8.796;2023-04-25T04:24:33;11.80;53.10
47845;DHT22;33605;48.822;8.796;2023-04-25T04:26:58;11.80;53.10
47845;DHT22;33605;48.822;8.796;2023-04-25T04:29:24;11.80;53.20
47845;DHT22;33605;48.822;8.796;2023-04-25T04:31:51;11.80;53.30
47845;DHT22;33605;48.822;8.796;2023-04-25T04:34:18;11.80;53.30
47845;DHT22;33605;48.822;8.796;2023-04-25T04:36:44;11.80;53.20
47845;DHT22;33605;48.822;8.796;2023-04-25T04:39:11;11.90;53.30
47845;DHT22;33605;48.822;8.796;2023-04-25T04:41:37;11.90;53.30
47845;DHT22;33605;48.822;8.796;2023-04-25T04:44:03;11.90;53.20
47845;DHT22;33605;48.822;8.796;2023-04-25T04:46:29;11.90;53.10
47845;DHT22;33605;48.822;8.796;2023-04-25T04:48:55;11.90;53.00
47845;DHT22;33605;48.822;8.796;2023-04-25T04:51:21;12.00;52.90
47845;DHT22;33605;48.822;8.796;2023-04-25T04:53:47;12.00;52.80
47845;DHT22;33605;48.822;8.796;2023-04-25T04:56:12;12.00;52.80
47845;DHT22;33605;48.822;8.796;2023-04-25T04:58:38;12.00;52.80
47845;DHT22;33605;48.822;8.796;2023-04-25T05:01:04;12.00;52.60
47845;DHT22;33605;48.822;8.796;2023-04-25T05:03:30;12.10;52.50
47845;DHT22;33605;48.822;8.796;2023-04-25T05:05:56;12.00;52.20
47845;DHT22;33605;48.822;8.796;2023-04-25T05:08:21;12.00;52.00
47845;DHT22;33605;48.822;8.796;2023-04-25T05:10:47;12.00;51.80
47845;DHT22;33605;48.822;8.796;2023-04-25T05:13:13;12.00;52.30
47845;DHT22;33605;48.822;8.796;2023-04-25T05:15:38;12.00;51.70
47845;DHT22;33605;48.822;8.796;2023-04-25T05:18:04;12.00;51.80
47845;DHT22;33605;48.822;8.796;2023-04-25T05:20:30;12.00;51.80
47845;DHT22;33605;48.822;8.796;2023-04-25T05:22:55;12.00;51.80
47845;DHT22;33605;48.822;8.796;2023-04-25T05:25:21;12.00;51.60
47845;DHT22;33605;48.822;8.796;2023-04-25T05:27:47;12.00;51.50
47845;DHT22;33605;48.822;8.796;2023-04-25T05:30:12;12.00;51.60
47845;DHT22;33605;48.822;8.796;2023-04-25T05:32:38;12.00;51.70
47845;DHT22;33605;48.822;8.796;2023-04-25T05:35:04;12.00;51.70
47845;DHT22;33605;48.822;8.796;2023-04-25T05:37:32;12.00;51.60
47845;DHT22;33605;48.822;8.796;2023-04-25T05:39:58;12.00;51.50
47845;DHT22;33605;48.822;8.796;2023-04-25T05:42:24;12.00;51.50
47845;DHT22;33605;48.822;8.796;2023-04-25T05:44:49;12.00;51.50
47845;DHT22;33605;48.822;8.796;2023-04-25T05:47:15;12.00;51.50
47845;DHT22;33605;48.822;8.796;2023-04-25T05:49:41;12.00;51.50
47845;DHT22;33605;48.822;8.796;2023-04-25T05:52:06;12.00;51.40
47845;DHT22;33605;48.822;8.796;2023-04-25T05:54:32;12.00;51.40
47845;DHT22;33605;48.822;8.796;2023-04-25T05:56:58;12.00;51.50
47845;DHT22;33605;48.822;8.796;2023-04-25T05:59:24;12.10;51.80
47845;DHT22;33605;48.822;8.796;2023-04-25T06:01:49;12.10;52.10
47845;DHT22;33605;48.822;8.796;2023-04-25T06:04:15;12.10;52.20
47845;DHT22;33605;48.822;8.796;2023-04-25T06:06:41;12.10;52.40
47845;DHT22;33605;48.822;8.796;2023-04-25T06:09:06;12.10;52.50
47845;DHT22;33605;48.822;8.796;2023-04-25T06:11:32;12.10;52.60
47845;DHT22;33605;48.822;8.796;2023-04-25T06:13:57;12.10;52.60
47845;DHT22;33605;48.822;8.796;2023-04-25T06:16:23;12.20;53.00
47845;DHT22;33605;48.822;8.796;2023-04-25T06:18:51;12.20;53.10
47845;DHT22;33605;48.822;8.796;2023-04-25T06:21:17;12.20;53.10
47845;DHT22;33605;48.822;8.796;2023-04-25T06:23:42;12.20;53.10
47845;DHT22;33605;48.822;8.796;2023-04-25T06:26:08;12.20;53.10
47845;DHT22;33605;48.822;8.796;2023-04-25T06:28:34;12.20;53.20
47845;DHT22;33605;48.822;8.796;2023-04-25T06:30:59;12.30;53.50
47845;DHT22;33605;48.822;8.796;2023-04-25T06:33:25;12.30;53.40
47845;DHT22;33605;48.822;8.796;2023-04-25T06:35:52;12.30;53.30
47845;DHT22;33605;48.822;8.796;2023-04-25T06:38:18;12.30;53.10
47845;DHT22;33605;48.822;8.796;2023-04-25T06:40:43;12.30;53.10
47845;DHT22;33605;48.822;8.796;2023-04-25T06:43:10;12.30;53.20
47845;DHT22;33605;48.822;8.796;2023-04-25T06:45:36;12.40;53.40
47845;DHT22;33605;48.822;8.796;2023-04-25T06:48:01;12.40;53.40
47845;DHT22;33605;48.822;8.796;2023-04-25T06:50:27;12.40;53.50
47845;DHT22;33605;48.822;8.796;2023-04-25T06:52:52;12.40;53.70
47845;DHT22;33605;48.822;8.796;2023-04-25T06:55:18;12.50;53.80
47845;DHT22;33605;48.822;8.796;2023-04-25T06:57:44;12.50;53.90
47845;DHT22;33605;48.822;8.796;2023-04-25T07:00:09;12.50;53.90
47845;DHT22;33605;48.822;8.796;2023-04-25T07:02:36;12.50;53.60
47845;DHT22;33605;48.822;8.796;2023-04-25T07:05:02;12.50;53.30
47845;DHT22;33605;48.822;8.796;2023-04-25T07:07:29;12.40;53.00
47845;DHT22;33605;48.822;8.796;2023-04-25T07:09:55;12.40;52.90
47845;DHT22;33605;48.822;8.796;2023-04-25T07:12:21;12.40;53.00
47845;DHT22;33605;48.822;8.796;2023-04-25T07:14:47;12.40;53.00
47845;DHT22;33605;48.822;8.796;2023-04-25T07:17:12;12.40;53.00
47845;DHT22;33605;48.822;8.796;2023-04-25T07:19:38;12.40;53.20
47845;DHT22;33605;48.822;8.796;2023-04-25T07:22:05;12.30;53.10
47845;DHT22;33605;48.822;8.796;2023-04-25T07:24:31;12.30;53.10
47845;DHT22;33605;48.822;8.796;2023-04-25T07:26:57;12.30;53.10
47845;DHT22;33605;48.822;8.796;2023-04-25T07:29:23;12.30;53.30
47845;DHT22;33605;48.822;8.796;2023-04-25T07:31:49;12.30;54.00
47845;DHT22;33605;48.822;8.796;2023-04-25T07:34:14;12.30;53.40
47845;DHT22;33605;48.822;8.796;2023-04-25T07:36:41;12.30;53.50
47845;DHT22;33605;48.822;8.796;2023-04-25T07:39:07;12.30;53.60
47845;DHT22;33605;48.822;8.796;2023-04-25T07:41:34;12.30;53.70
47845;DHT22;33605;48.822;8.796;2023-04-25T07:44:00;12.30;54.00
47845;DHT22;33605;48.822;8.796;2023-04-25T07:46:25;12.30;54.10
47845;DHT22;33605;48.822;8.796;2023-04-25T07:48:51;12.30;54.30
47845;DHT22;33605;48.822;8.796;2023-04-25T07:51:17;12.30;54.40
47845;DHT22;33605;48.822;8.796;2023-04-25T07:53:45;12.30;54.50
47845;DHT22;33605;48.822;8.796;2023-04-25T07:56:11;12.30;54.50
47845;DHT22;33605;48.822;8.796;2023-04-25T07:58:37;12.30;54.50
47845;DHT22;33605;48.822;8.796;2023-04-25T08:01:02;12.40;54.80
47845;DHT22;33605;48.822;8.796;2023-04-25T08:03:28;12.40;54.90
47845;DHT22;33605;48.822;8.796;2023-04-25T08:05:54;12.40;55.00
47845;DHT22;33605;48.822;8.796;2023-04-25T08:08:19;12.40;55.00
47845;DHT22;33605;48.822;8.796;2023-04-25T08:10:45;12.40;55.00
47845;DHT22;33605;48.822;8.796;2023-04-25T08:13:10;12.50;55.10
47845;DHT22;33605;48.822;8.796;2023-04-25T08:15:36;12.50;55.10
47845;DHT22;33605;48.822;8.796;2023-04-25T08:18:02;12.50;55.20
47845;DHT22;33605;48.822;8.796;2023-04-25T08:20:28;12.50;55.20
47845;DHT22;33605;48.822;8.796;2023-04-25T08:22:53;12.50;55.10
47845;DHT22;33605;48.822;8.796;2023-04-25T08:25:19;12.60;55.20
47845;DHT22;33605;48.822;8.796;2023-04-25T08:27:45;12.60;55.00
47845;DHT22;33605;48.822;8.796;2023-04-25T08:30:11;12.60;54.90
47845;DHT22;33605;48.822;8.796;2023-04-25T08:32:37;12.50;54.70
47845;DHT22;33605;48.822;8.796;2023-04-25T08:35:05;12.50;54.80
47845;DHT22;33605;48.822;8.796;2023-04-25T08:37:32;12.50;54.70
47845;DHT22;33605;48.822;8.796;2023-04-25T08:54:48;12.10;57.50
47845;DHT22;33605;48.822;8.796;2023-04-25T08:57:14;12.10;57.10
47845;DHT22;33605;48.822;8.796;2023-04-25T08:59:41;12.20;55.90
47845;DHT22;33605;48.822;8.796;2023-04-25T09:02:11;12.20;55.90
47845;DHT22;33605;48.822;8.796;2023-04-25T09:04:40;12.30;55.70
47845;DHT22;33605;48.822;8.796;2023-04-25T09:07:06;12.30;55.20
47845;DHT22;33605;48.822;8.796;2023-04-25T09:09:32;12.30;54.70
47845;DHT22;33605;48.822;8.796;2023-04-25T09:11:58;12.30;54.20
47845;DHT22;33605;48.822;8.796;2023-04-25T09:14:24;12.30;54.00
47845;DHT22;33605;48.822;8.796;2023-04-25T09:19:23;12.20;53.60
47845;DHT22;33605;48.822;8.796;2023-04-25T09:21:50;12.20;53.60
47845;DHT22;33605;48.822;8.796;2023-04-25T09:24:19;12.20;53.60
47845;DHT22;33605;48.822;8.796;2023-04-25T09:26:54;12.10;53.80
47845;DHT22;33605;48.822;8.796;2023-04-25T09:29:29;12.10;53.70
47845;DHT22;33605;48.822;8.796;2023-04-25T09:32:11;12.10;53.50
47845;DHT22;33605;48.822;8.796;2023-04-25T09:34:42;12.00;53.70
47845;DHT22;33605;48.822;8.796;2023-04-25T09:37:11;12.00;53.70
47845;DHT22;33605;48.822;8.796;2023-04-25T09:39:38;12.00;53.60
47845;DHT22;33605;48.822;8.796;2023-04-25T09:42:05;12.00;53.60
47845;DHT22;33605;48.822;8.796;2023-04-25T09:44:31;12.00;53.40
47845;DHT22;33605;48.822;8.796;2023-04-25T09:46:56;11.90;53.30
47845;DHT22;33605;48.822;8.796;2023-04-25T09:49:22;11.90;53.60
47845;DHT22;33605;48.822;8.796;2023-04-25T09:51:58;11.90;53.80
47845;DHT22;33605;48.822;8.796;2023-04-25T09:54:24;11.90;54.10
47845;DHT22;33605;48.822;8.796;2023-04-25T09:57:57;11.90;54.10
47845;DHT22;33605;48.822;8.796;2023-04-25T10:00:26;11.90;54.40
47845;DHT22;33605;48.822;8.796;2023-04-25T10:02:52;11.90;54.60
47845;DHT22;33605;48.822;8.796;2023-04-25T10:05:19;11.90;54.60
47845;DHT22;33605;48.822;8.796;2023-04-25T10:07:45;11.90;54.80
47845;DHT22;33605;48.822;8.796;2023-04-25T10:10:13;12.00;55.00
47845;DHT22;33605;48.822;8.796;2023-04-25T10:12:38;11.90;54.90
47845;DHT22;33605;48.822;8.796;2023-04-25T10:15:06;12.00;54.80
47845;DHT22;33605;48.822;8.796;2023-04-25T10:17:34;12.00;55.00
47845;DHT22;33605;48.822;8.796;2023-04-25T10:20:02;12.00;55.10
47845;DHT22;33605;48.822;8.796;2023-04-25T10:22:37;12.00;55.00
47845;DHT22;33605;48.822;8.796;2023-04-25T10:25:04;12.00;55.30
47845;DHT22;33605;48.822;8.796;2023-04-25T10:27:31;12.00;55.60
47845;DHT22;33605;48.822;8.796;2023-04-25T10:30:10;12.10;56.10
47845;DHT22;33605;48.822;8.796;2023-04-25T10:32:39;12.10;56.70
47845;DHT22;33605;48.822;8.796;2023-04-25T10:35:23;12.20;56.70
47845;DHT22;33605;48.822;8.796;2023-04-25T10:38:13;12.20;56.30
47845;DHT22;33605;48.822;8.796;2023-04-25T10:40:39;12.20;56.10
47845;DHT22;33605;48.822;8.796;2023-04-25T10:43:37;12.30;56.10
47845;DHT22;33605;48.822;8.796;2023-04-25T10:48:50;12.30;55.90
47845;DHT22;33605;48.822;8.796;2023-04-25T10:51:36;12.30;56.10
47845;DHT22;33605;48.822;8.796;2023-04-25T10:54:06;12.30;56.00
47845;DHT22;33605;48.822;8.796;2023-04-25T10:56:35;12.30;55.80
47845;DHT22;33605;48.822;8.796;2023-04-25T11:01:37;12.30;55.90
47845;DHT22;33605;48.822;8.796;2023-04-25T11:04:03;12.30;55.80
47845;DHT22;33605;48.822;8.796;2023-04-25T11:06:39;12.30;55.80
47845;DHT22;33605;48.822;8.796;2023-04-25T11:09:12;12.30;55.70
47845;DHT22;33605;48.822;8.796;2023-04-25T11:11:38;12.30;55.40
47845;DHT22;33605;48.822;8.796;2023-04-25T11:14:04;12.30;55.30
47845;DHT22;33605;48.822;8.796;2023-04-25T11:16:30;12.30;55.50
47845;DHT22;33605;48.822;8.796;2023-04-25T11:18:58;12.30;55.50
47845;DHT22;33605;48.822;8.796;2023-04-25T11:21:25;12.30;55.30
47845;DHT22;33605;48.822;8.796;2023-04-25T11:23:54;12.30;55.10
47845;DHT22;33605;48.822;8.796;2023-04-25T11:26:22;12.30;54.90
47845;DHT22;33605;48.822;8.796;2023-04-25T11:28:49;12.30;54.90
47845;DHT22;33605;48.822;8.796;2023-04-25T11:31:14;12.30;55.20
47845;DHT22;33605;48.822;8.796;2023-04-25T11:33:40;12.30;55.30
47845;DHT22;33605;48.822;8.796;2023-04-25T11:36:06;12.20;55.10
47845;DHT22;33605;48.822;8.796;2023-04-25T11:38:32;12.20;55.00
47845;DHT22;33605;48.822;8.796;2023-04-25T11:40:58;12.20;55.00
47845;DHT22;33605;48.822;8.796;2023-04-25T11:43:25;12.20;55.20
47845;DHT22;33605;48.822;8.796;2023-04-25T11:45:51;12.20;55.10
47845;DHT22;33605;48.822;8.796;2023-04-25T11:48:18;12.20;55.00
47845;DHT22;33605;48.822;8.796;2023-04-25T11:50:44;12.20;54.80
47845;DHT22;33605;48.822;8.796;2023-04-25T11:53:10;12.20;54.50
47845;DHT22;33605;48.822;8.796;2023-04-25T11:55:36;12.20;54.30
47845;DHT22;33605;48.822;8.796;2023-04-25T11:58:03;12.20;54.30
47845;DHT22;33605;48.822;8.796;2023-04-25T12:00:30;12.20;54.30
47845;DHT22;33605;48.822;8.796;2023-04-25T12:02:57;12.20;54.50
47845;DHT22;33605;48.822;8.796;2023-04-25T12:05:30;12.20;54.70
47845;DHT22;33605;48.822;8.796;2023-04-25T12:08:09;12.20;54.90
47845;DHT22;33605;48.822;8.796;2023-04-25T12:10:37;12.10;54.80
47845;DHT22;33605;48.822;8.796;2023-04-25T12:13:21;12.20;55.70
47845;DHT22;33605;48.822;8.796;2023-04-25T12:15:47;12.20;54.90
47845;DHT22;33605;48.822;8.796;2023-04-25T12:18:13;12.20;55.00
47845;DHT22;33605;48.822;8.796;2023-04-25T12:20:38;12.20;55.50
47845;DHT22;33605;48.822;8.796;2023-04-25T12:23:07;12.20;55.90
47845;DHT22;33605;48.822;8.796;2023-04-25T12:25:43;12.20;56.20
47845;DHT22;33605;48.822;8.796;2023-04-25T12:28:15;12.30;56.60
47845;DHT22;33605;48.822;8.796;2023-04-25T12:31:00;12.30;56.80
47845;DHT22;33605;48.822;8.796;2023-04-25T12:33:35;12.40;57.10
47845;DHT22;33605;48.822;8.796;2023-04-25T12:36:03;12.50;57.50
47845;DHT22;33605;48.822;8.796;2023-04-25T12:38:37;12.50;56.80
47845;DHT22;33605;48.822;8.796;2023-04-25T12:41:03;12.50;56.70
47845;DHT22;33605;48.822;8.796;2023-04-25T12:43:28;12.60;56.60
47845;DHT22;33605;48.822;8.796;2023-04-25T12:45:55;12.60;56.50
47845;DHT22;33605;48.822;8.796;2023-04-25T12:48:22;12.70;56.60
47845;DHT22;33605;48.822;8.796;2023-04-25T12:50:49;12.70;56.30
47845;DHT22;33605;48.822;8.796;2023-04-25T12:53:16;12.70;56.10
47845;DHT22;33605;48.822;8.796;2023-04-25T12:55:42;12.80;56.20
47845;DHT22;33605;48.822;8.796;2023-04-25T12:58:08;12.80;56.30
47845;DHT22;33605;48.822;8.796;2023-04-25T13:00:33;12.80;56.10
47845;DHT22;33605;48.822;8.796;2023-04-25T13:02:59;12.90;56.00
47845;DHT22;33605;48.822;8.796;2023-04-25T13:05:25;12.90;56.00
47845;DHT22;33605;48.822;8.796;2023-04-25T13:07:51;12.90;56.50
47845;DHT22;33605;48.822;8.796;2023-04-25T13:10:17;13.00;56.10
47845;DHT22;33605;48.822;8.796;2023-04-25T13:12:43;12.90;56.00
47845;DHT22;33605;48.822;8.796;2023-04-25T13:15:10;13.00;56.20
47845;DHT22;33605;48.822;8.796;2023-04-25T13:17:37;13.00;56.10
47845;DHT22;33605;48.822;8.796;2023-04-25T13:20:06;13.10;56.20
47845;DHT22;33605;48.822;8.796;2023-04-25T13:22:35;13.10;56.30
47845;DHT22;33605;48.822;8.796;2023-04-25T13:25:05;13.10;56.30
47845;DHT22;33605;48.822;8.796;2023-04-25T13:27:31;13.10;56.10
47845;DHT22;33605;48.822;8.796;2023-04-25T13:29:59;13.20;56.20
47845;DHT22;33605;48.822;8.796;2023-04-25T13:32:25;13.20;55.70
47845;DHT22;33605;48.822;8.796;2023-04-25T13:34:51;13.30;56.70
47845;DHT22;33605;48.822;8.796;2023-04-25T13:51:54;13.30;56.50
47845;DHT22;33605;48.822;8.796;2023-04-25T13:54:20;13.60;54.40
47845;DHT22;33605;48.822;8.796;2023-04-25T13:56:45;13.60;54.90
47845;DHT22;33605;48.822;8.796;2023-04-25T13:59:11;13.60;55.10
47845;DHT22;33605;48.822;8.796;2023-04-25T14:01:37;13.60;54.90
47845;DHT22;33605;48.822;8.796;2023-04-25T14:04:03;13.70;55.00
47845;DHT22;33605;48.822;8.796;2023-04-25T14:06:30;13.70;55.00
47845;DHT22;33605;48.822;8.796;2023-04-25T14:08:56;13.70;54.90
47845;DHT22;33605;48.822;8.796;2023-04-25T14:11:22;13.80;54.40
47845;DHT22;33605;48.822;8.796;2023-04-25T14:13:48;13.80;53.70
47845;DHT22;33605;48.822;8.796;2023-04-25T14:16:15;13.80;53.50
47845;DHT22;33605;48.822;8.796;2023-04-25T17:11:46;13.90;53.50
47845;DHT22;33605;48.822;8.796;2023-04-25T17:14:12;14.00;48.90
47845;DHT22;33605;48.822;8.796;2023-04-25T17:16:38;14.00;49.50
47845;DHT22;33605;48.822;8.796;2023-04-25T17:19:04;13.90;49.80
47845;DHT22;33605;48.822;8.796;2023-04-25T17:21:30;13.80;50.00
47845;DHT22;33605;48.822;8.796;2023-04-25T17:23:57;13.80;50.20
47845;DHT22;33605;48.822;8.796;2023-04-25T17:26:23;13.70;50.50
47845;DHT22;33605;48.822;8.796;2023-04-25T17:28:49;13.60;50.60
47845;DHT22;33605;48.822;8.796;2023-04-25T17:31:15;13.60;50.80
47845;DHT22;33605;48.822;8.796;2023-04-25T17:33:41;13.50;51.00
47845;DHT22;33605;48.822;8.796;2023-04-25T17:36:07;13.40;51.10
47845;DHT22;33605;48.822;8.796;2023-04-25T17:38:33;13.40;51.20
47845;DHT22;33605;48.822;8.796;2023-04-25T17:41:00;13.40;51.20
47845;DHT22;33605;48.822;8.796;2023-04-25T17:43:26;13.30;51.20
47845;DHT22;33605;48.822;8.796;2023-04-25T17:45:52;13.20;51.30
47845;DHT22;33605;48.822;8.796;2023-04-25T17:48:18;13.20;51.40
47845;DHT22;33605;48.822;8.796;2023-04-25T17:50:46;13.10;51.30
47845;DHT22;33605;48.822;8.796;2023-04-25T17:53:12;13.10;51.30
47845;DHT22;33605;48.822;8.796;2023-04-25T17:55:38;13.00;51.40
47845;DHT22;33605;48.822;8.796;2023-04-25T17:58:06;13.00;51.50
47845;DHT22;33605;48.822;8.796;2023-04-25T18:00:32;13.00;51.50
47845;DHT22;33605;48.822;8.796;2023-04-25T18:02:59;12.90;51.50
47845;DHT22;33605;48.822;8.796;2023-04-25T18:05:25;12.80;51.60
47845;DHT22;33605;48.822;8.796;2023-04-25T18:07:51;12.80;51.80
47845;DHT22;33605;48.822;8.796;2023-04-25T18:10:16;12.80;51.90
47845;DHT22;33605;48.822;8.796;2023-04-25T18:12:42;12.80;51.90
47845;DHT22;33605;48.822;8.796;2023-04-25T18:15:08;12.70;51.80
47845;DHT22;33605;48.822;8.796;2023-04-25T18:17:35;12.70;51.90
47845;DHT22;33605;48.822;8.796;2023-04-25T18:20:09;12.60;51.90
47845;DHT22;33605;48.822;8.796;2023-04-25T18:22:38;12.60;52.00
47845;DHT22;33605;48.822;8.796;2023-04-25T18:25:04;12.60;52.10
47845;DHT22;33605;48.822;8.796;2023-04-25T18:27:30;12.50;52.00
47845;DHT22;33605;48.822;8.796;2023-04-25T18:29:57;12.50;52.40
47845;DHT22;33605;48.822;8.796;2023-04-25T18:32:22;12.50;52.80
47845;DHT22;33605;48.822;8.796;2023-04-25T18:34:48;12.50;53.00
47845;DHT22;33605;48.822;8.796;2023-04-25T18:37:15;12.40;53.20
47845;DHT22;33605;48.822;8.796;2023-04-25T18:39:41;12.40;53.20
47845;DHT22;33605;48.822;8.796;2023-04-25T18:42:07;12.40;52.90
47845;DHT22;33605;48.822;8.796;2023-04-25T18:44:33;12.40;52.80
47845;DHT22;33605;48.822;8.796;2023-04-25T18:47:04;12.30;52.70
47845;DHT22;33605;48.822;8.796;2023-04-25T18:49:31;12.30;52.90
47845;DHT22;33605;48.822;8.796;2023-04-25T18:51:57;12.30;53.00
47845;DHT22;33605;48.822;8.796;2023-04-25T18:54:23;12.30;53.10
47845;DHT22;33605;48.822;8.796;2023-04-25T18:56:48;12.20;53.30
47845;DHT22;33605;48.822;8.796;2023-04-25T18:59:14;12.20;53.50